sensor_id;sensor_type;location;lat;lon;timestamp;pressure;altitude;pressure_sealevel;temperature;humidity
19672;BME280;9983;51.114;13.788;2023-02-20T00:00:30;100067.13;;;3.92;100.00
19672;BME280;9983;51.114;13.788;2023-02-20T00:05:30;100069.06;;;4.12;100.00
19672;BME280;9983;51.114;13.788;2023-02-20T00:10:31;100079.44;;;4.37;100.00
19672;BME280;9983;51.114;13.788;2023-02-20T00:15:31;100087.16;;;4.63;100.00
19672;BME280;9983;51.114;13.788;2023-02-20T00:20:31;100070.03;;;4.55;100.00
19672;BME280;9983;51.114;13.788;2023-02-20T00:25:32;100065.69;;;4.54;100.00
19672;BME280;9983;51.114;13.788;2023-02-20T00:30:32;100057.97;;;4.18;100.00
19672;BME280;9983;51.114;13.788;2023-02-20T00:35:32;100050.94;;;4.62;100.00
19672;BME280;9983;51.114;13.788;2023-02-20T00:40:33;100040.75;;;4.78;100.00
19672;BME280;9983;51.114;13.788;2023-02-20T00:45:33;100030.00;;;4.90;100.00
19672;BME280;9983;51.114;13.788;2023-02-20T00:50:33;100033.53;;;4.80;100.00
19672;BME280;9983;51.114;13.788;2023-02-20T00:55:33;100028.13;;;5.02;100.00
19672;BME280;9983;51.114;13.788;2023-02-20T01:00:34;100014.69;;;4.83;100.00
19672;BME280;9983;51.114;13.788;2023-02-20T01:05:34;100006.38;;;5.08;100.00
19672;BME280;9983;51.114;13.788;2023-02-20T01:10:34;100022.22;;;5.30;100.00
19672;BME280;9983;51.114;13.788;2023-02-20T01:15:35;100023.72;;;5.23;100.00
19672;BME280;9983;51.114;13.788;2023-02-20T01:20:35;100020.06;;;5.36;100.00
19672;BME280;9983;51.114;13.788;2023-02-20T01:25:35;100006.63;;;5.05;100.00
19672;BME280;9983;51.114;13.788;2023-02-20T01:30:35;99994.09;;;5.49;100.00
19672;BME280;9983;51.114;13.788;2023-02-20T01:35:36;99994.41;;;5.55;100.00
19672;BME280;9983;51.114;13.788;2023-02-20T01:40:36;99990.19;;;5.53;100.00
19672;BME280;9983;51.114;13.788;2023-02-20T01:45:37;99976.34;;;5.80;100.00
19672;BME280;9983;51.114;13.788;2023-02-20T01:50:41;99974.34;;;5.72;100.00
19672;BME280;9983;51.114;13.788;2023-02-20T01:55:47;99975.22;;;5.93;100.00
19672;BME280;9983;51.114;13.788;2023-02-20T02:00:48;99979.53;;;5.94;100.00
19672;BME280;9983;51.114;13.788;2023-02-20T02:05:53;99958.53;;;5.91;100.00
19672;BME280;9983;51.114;13.788;2023-02-20T02:11:05;99961.91;;;5.93;100.00
19672;BME280;9983;51.114;13.788;2023-02-20T02:16:23;99960.97;;;5.83;100.00
19672;BME280;9983;51.114;13.788;2023-02-20T02:38:23;99948.47;;;6.04;100.00
19672;BME280;9983;51.114;13.788;2023-02-20T02:49:10;99939.13;;;6.20;100.00
19672;BME280;9983;51.114;13.788;2023-02-20T02:54:18;99937.03;;;6.14;100.00
19672;BME280;9983;51.114;13.788;2023-02-20T02:59:30;99917.41;;;6.15;100.00
19672;BME280;9983;51.114;13.788;2023-02-20T03:04:32;99912.97;;;6.25;100.00
19672;BME280;9983;51.114;13.788;2023-02-20T03:09:37;99905.09;;;6.14;100.00
19672;BME280;9983;51.114;13.788;2023-02-20T03:14:45;99903.19;;;6.35;100.00
19672;BME280;9983;51.114;13.788;2023-02-20T03:20:09;99899.69;;;6.34;100.00
19672;BME280;9983;51.114;13.788;2023-02-20T03:25:13;99894.22;;;6.36;100.00
19672;BME280;9983;51.114;13.788;2023-02-20T03:30:26;99888.69;;;6.08;100.00
19672;BME280;9983;51.114;13.788;2023-02-20T03:35:28;99878.94;;;5.88;100.00
19672;BME280;9983;51.114;13.788;2023-02-20T03:40:50;99875.44;;;6.47;100.00
19672;BME280;9983;51.114;13.788;2023-02-20T03:46:13;99885.94;;;6.39;100.00
19672;BME280;9983;51.114;13.788;2023-02-20T03:51:17;99881.72;;;6.27;100.00
19672;BME280;9983;51.114;13.788;2023-02-20T03:56:21;99902.66;;;6.79;100.00
19672;BME280;9983;51.114;13.788;2023-02-20T04:01:25;99894.38;;;6.82;100.00
19672;BME280;9983;51.114;13.788;2023-02-20T04:06:30;99889.47;;;6.97;100.00
19672;BME280;9983;51.114;13.788;2023-02-20T04:11:36;99874.03;;;6.81;100.00
19672;BME280;9983;51.114;13.788;2023-02-20T04:16:42;99868.16;;;6.49;100.00
19672;BME280;9983;51.114;13.788;2023-02-20T04:21:49;99859.75;;;6.44;100.00
19672;BME280;9983;51.114;13.788;2023-02-20T04:26:51;99859.88;;;6.91;100.00
19672;BME280;9983;51.114;13.788;2023-02-20T04:31:52;99856.22;;;6.92;100.00
19672;BME280;9983;51.114;13.788;2023-02-20T04:37:06;99851.03;;;6.80;100.00
19672;BME280;9983;51.114;13.788;2023-02-20T04:42:07;99865.91;;;6.54;100.00
19672;BME280;9983;51.114;13.788;2023-02-20T04:47:12;99862.41;;;6.63;100.00
19672;BME280;9983;51.114;13.788;2023-02-20T04:52:13;99855.25;;;6.83;100.00
19672;BME280;9983;51.114;13.788;2023-02-20T04:57:13;99863.94;;;6.56;100.00
19672;BME280;9983;51.114;13.788;2023-02-20T05:02:13;99848.66;;;6.77;100.00
19672;BME280;9983;51.114;13.788;2023-02-20T05:07:15;99845.25;;;6.95;100.00
19672;BME280;9983;51.114;13.788;2023-02-20T05:12:15;99837.25;;;6.95;100.00
19672;BME280;9983;51.114;13.788;2023-02-20T05:17:16;99829.84;;;6.89;100.00
19672;BME280;9983;51.114;13.788;2023-02-20T05:22:16;99838.16;;;6.85;100.00
19672;BME280;9983;51.114;13.788;2023-02-20T05:27:21;99833.06;;;7.02;100.00
19672;BME280;9983;51.114;13.788;2023-02-20T05:32:24;99799.28;;;6.93;100.00
19672;BME280;9983;51.114;13.788;2023-02-20T05:37:26;99789.66;;;7.19;100.00
19672;BME280;9983;51.114;13.788;2023-02-20T05:42:26;99783.13;;;6.94;100.00
19672;BME280;9983;51.114;13.788;2023-02-20T05:47:26;99771.97;;;7.18;100.00
19672;BME280;9983;51.114;13.788;2023-02-20T05:52:27;99792.88;;;7.13;100.00
19672;BME280;9983;51.114;13.788;2023-02-20T05:57:27;99797.94;;;7.16;100.00
19672;BME280;9983;51.114;13.788;2023-02-20T06:02:30;99803.00;;;7.19;100.00
19672;BME280;9983;51.114;13.788;2023-02-20T06:07:33;99797.38;;;7.12;100.00
19672;BME280;9983;51.114;13.788;2023-02-20T06:12:33;99803.94;;;7.55;100.00
19672;BME280;9983;51.114;13.788;2023-02-20T06:17:34;99805.44;;;7.67;100.00
19672;BME280;9983;51.114;13.788;2023-02-20T06:22:34;99785.22;;;7.37;100.00
19672;BME280;9983;51.114;13.788;2023-02-20T06:27:37;99763.88;;;7.37;100.00
19672;BME280;9983;51.114;13.788;2023-02-20T06:32:38;99778.50;;;7.33;100.00
19672;BME280;9983;51.114;13.788;2023-02-20T06:37:38;99787.00;;;7.19;100.00
19672;BME280;9983;51.114;13.788;2023-02-20T06:42:39;99752.50;;;7.62;100.00
19672;BME280;9983;51.114;13.788;2023-02-20T06:47:39;99756.88;;;7.36;100.00
19672;BME280;9983;51.114;13.788;2023-02-20T06:52:39;99753.41;;;7.53;100.00
19672;BME280;9983;51.114;13.788;2023-02-20T06:57:40;99763.97;;;7.45;100.00
19672;BME280;9983;51.114;13.788;2023-02-20T07:02:40;99759.06;;;7.50;100.00
19672;BME280;9983;51.114;13.788;2023-02-20T07:07:40;99745.22;;;7.65;100.00
19672;BME280;9983;51.114;13.788;2023-02-20T07:12:40;99732.75;;;7.55;100.00
19672;BME280;9983;51.114;13.788;2023-02-20T07:17:41;99741.28;;;7.86;100.00
19672;BME280;9983;51.114;13.788;2023-02-20T07:22:49;99736.56;;;7.98;100.00
19672;BME280;9983;51.114;13.788;2023-02-20T07:27:49;99742.53;;;8.27;100.00
19672;BME280;9983;51.114;13.788;2023-02-20T07:32:50;99733.19;;;7.96;100.00
19672;BME280;9983;51.114;13.788;2023-02-20T07:37:50;99732.06;;;7.98;100.00
19672;BME280;9983;51.114;13.788;2023-02-20T07:42:51;99730.22;;;7.99;100.00
19672;BME280;9983;51.114;13.788;2023-02-20T07:47:51;99726.25;;;8.21;100.00
19672;BME280;9983;51.114;13.788;2023-02-20T07:52:51;99721.09;;;8.19;100.00
19672;BME280;9983;51.114;13.788;2023-02-20T07:57:51;99733.75;;;8.17;100.00
19672;BME280;9983;51.114;13.788;2023-02-20T08:02:53;99732.44;;;8.21;100.00
19672;BME280;9983;51.114;13.788;2023-02-20T08:07:53;99730.31;;;8.07;100.00
19672;BME280;9983;51.114;13.788;2023-02-20T08:12:54;99689.19;;;8.00;100.00
19672;BME280;9983;51.114;13.788;2023-02-20T08:17:54;99668.47;;;8.37;98.49
19672;BME280;9983;51.114;13.788;2023-02-20T08:22:54;99691.88;;;8.61;97.55
19672;BME280;9983;51.114;13.788;2023-02-20T08:27:55;99706.50;;;8.31;95.98
19672;BME280;9983;51.114;13.788;2023-02-20T08:32:55;99698.56;;;8.40;96.14
19672;BME280;9983;51.114;13.788;2023-02-20T08:37:56;99662.88;;;9.08;92.48
19672;BME280;9983;51.114;13.788;2023-02-20T08:42:56;99645.63;;;9.37;91.24
19672;BME280;9983;51.114;13.788;2023-02-20T08:47:56;99663.91;;;9.16;89.96
19672;BME280;9983;51.114;13.788;2023-02-20T08:53:00;99665.66;;;9.33;92.15
19672;BME280;9983;51.114;13.788;2023-02-20T08:58:01;99645.72;;;9.19;91.31
19672;BME280;9983;51.114;13.788;2023-02-20T09:03:01;99624.91;;;9.63;91.01
19672;BME280;9983;51.114;13.788;2023-02-20T09:08:06;99632.47;;;9.68;90.48
19672;BME280;9983;51.114;13.788;2023-02-20T09:13:06;99632.28;;;9.61;90.81
19672;BME280;9983;51.114;13.788;2023-02-20T09:18:07;99641.69;;;10.06;89.01
19672;BME280;9983;51.114;13.788;2023-02-20T09:23:10;99617.91;;;10.43;86.18
19672;BME280;9983;51.114;13.788;2023-02-20T09:28:10;99611.53;;;9.87;88.00
19672;BME280;9983;51.114;13.788;2023-02-20T09:33:11;99595.81;;;10.25;84.90
19672;BME280;9983;51.114;13.788;2023-02-20T09:38:12;99606.16;;;10.52;85.96
19672;BME280;9983;51.114;13.788;2023-02-20T09:43:49;99596.81;;;10.40;85.05
19672;BME280;9983;51.114;13.788;2023-02-20T09:49:14;99576.69;;;10.44;84.32
19672;BME280;9983;51.114;13.788;2023-02-20T09:54:23;99563.59;;;10.49;83.75
19672;BME280;9983;51.114;13.788;2023-02-20T09:59:31;99579.31;;;10.69;81.71
19672;BME280;9983;51.114;13.788;2023-02-20T10:04:38;99568.28;;;10.55;81.92
19672;BME280;9983;51.114;13.788;2023-02-20T10:09:39;99565.16;;;10.83;79.82
19672;BME280;9983;51.114;13.788;2023-02-20T10:20:08;99555.78;;;10.87;79.12
19672;BME280;9983;51.114;13.788;2023-02-20T10:30:34;99538.53;;;11.12;77.03
19672;BME280;9983;51.114;13.788;2023-02-20T10:35:41;99536.81;;;11.19;75.74
19672;BME280;9983;51.114;13.788;2023-02-20T10:40:55;99535.06;;;11.72;75.05
19672;BME280;9983;51.114;13.788;2023-02-20T10:46:13;99532.50;;;11.56;75.60
19672;BME280;9983;51.114;13.788;2023-02-20T10:51:26;99518.94;;;11.72;75.31
19672;BME280;9983;51.114;13.788;2023-02-20T10:56:38;99495.00;;;11.25;76.81
19672;BME280;9983;51.114;13.788;2023-02-20T11:01:42;99486.06;;;11.32;76.31
19672;BME280;9983;51.114;13.788;2023-02-20T11:06:45;99463.13;;;11.67;74.21
19672;BME280;9983;51.114;13.788;2023-02-20T11:11:48;99452.03;;;11.48;73.62
19672;BME280;9983;51.114;13.788;2023-02-20T11:16:56;99467.59;;;11.37;73.69
19672;BME280;9983;51.114;13.788;2023-02-20T11:21:57;99440.69;;;12.12;71.56
19672;BME280;9983;51.114;13.788;2023-02-20T11:37:21;99387.47;;;12.23;70.57
19672;BME280;9983;51.114;13.788;2023-02-20T11:42:21;99377.34;;;12.75;68.10
19672;BME280;9983;51.114;13.788;2023-02-20T11:47:26;99364.38;;;12.64;66.53
19672;BME280;9983;51.114;13.788;2023-02-20T11:52:27;99365.19;;;12.79;66.14
19672;BME280;9983;51.114;13.788;2023-02-20T11:57:28;99354.91;;;13.11;65.21
19672;BME280;9983;51.114;13.788;2023-02-20T12:02:29;99355.03;;;12.81;65.70
19672;BME280;9983;51.114;13.788;2023-02-20T12:12:41;99321.31;;;13.07;65.48
19672;BME280;9983;51.114;13.788;2023-02-20T12:17:58;99321.16;;;12.87;65.68
19672;BME280;9983;51.114;13.788;2023-02-20T12:28:38;99323.78;;;13.57;62.65
19672;BME280;9983;51.114;13.788;2023-02-20T12:55:44;99293.94;;;12.97;68.73
19672;BME280;9983;51.114;13.788;2023-02-20T13:01:04;99283.63;;;13.07;67.90
19672;BME280;9983;51.114;13.788;2023-02-20T13:06:06;99283.94;;;12.90;67.97
19672;BME280;9983;51.114;13.788;2023-02-20T13:11:15;99278.22;;;13.21;67.41
19672;BME280;9983;51.114;13.788;2023-02-20T13:16:31;99264.88;;;13.41;66.93
19672;BME280;9983;51.114;13.788;2023-02-20T13:21:33;99267.28;;;13.29;67.36
19672;BME280;9983;51.114;13.788;2023-02-20T13:52:40;99258.53;;;13.96;68.76
19672;BME280;9983;51.114;13.788;2023-02-20T13:57:55;99261.94;;;13.36;71.26
19672;BME280;9983;51.114;13.788;2023-02-20T14:02:56;99217.09;;;13.56;70.70
19672;BME280;9983;51.114;13.788;2023-02-20T14:07:57;99240.78;;;13.67;70.69
19672;BME280;9983;51.114;13.788;2023-02-20T14:13:17;99225.44;;;13.27;71.33
19672;BME280;9983;51.114;13.788;2023-02-20T14:18:31;99224.81;;;13.25;72.52
19672;BME280;9983;51.114;13.788;2023-02-20T14:23:32;99227.28;;;13.67;70.46
19672;BME280;9983;51.114;13.788;2023-02-20T14:28:34;99231.38;;;13.50;71.43
19672;BME280;9983;51.114;13.788;2023-02-20T14:33:36;99232.56;;;13.48;72.45
19672;BME280;9983;51.114;13.788;2023-02-20T14:44:01;99265.44;;;13.09;73.14
19672;BME280;9983;51.114;13.788;2023-02-20T14:49:25;99229.06;;;13.13;74.17
19672;BME280;9983;51.114;13.788;2023-02-20T14:54:26;99227.47;;;13.18;74.19
19672;BME280;9983;51.114;13.788;2023-02-20T14:59:34;99238.25;;;13.25;74.85
19672;BME280;9983;51.114;13.788;2023-02-20T15:04:34;99231.16;;;13.17;74.55
19672;BME280;9983;51.114;13.788;2023-02-20T15:09:44;99226.91;;;13.02;75.95
19672;BME280;9983;51.114;13.788;2023-02-20T15:14:53;99242.56;;;12.91;77.08
19672;BME280;9983;51.114;13.788;2023-02-20T15:19:55;99237.44;;;12.97;77.34
19672;BME280;9983;51.114;13.788;2023-02-20T15:25:13;99257.53;;;13.01;77.43
19672;BME280;9983;51.114;13.788;2023-02-20T15:30:15;99248.19;;;13.24;76.57
19672;BME280;9983;51.114;13.788;2023-02-20T15:35:19;99243.84;;;12.96;77.36
19672;BME280;9983;51.114;13.788;2023-02-20T15:40:26;99248.16;;;13.18;77.89
19672;BME280;9983;51.114;13.788;2023-02-20T15:45:28;99250.69;;;13.26;77.05
19672;BME280;9983;51.114;13.788;2023-02-20T15:50:29;99257.56;;;12.79;79.92
19672;BME280;9983;51.114;13.788;2023-02-20T15:55:32;99246.91;;;13.14;78.30
19672;BME280;9983;51.114;13.788;2023-02-20T16:00:33;99250.38;;;12.86;80.05
19672;BME280;9983;51.114;13.788;2023-02-20T16:05:33;99250.31;;;13.08;80.44
19672;BME280;9983;51.114;13.788;2023-02-20T16:10:34;99245.00;;;12.86;81.44
19672;BME280;9983;51.114;13.788;2023-02-20T16:15:34;99243.84;;;12.96;81.61
19672;BME280;9983;51.114;13.788;2023-02-20T16:20:34;99251.72;;;12.97;82.02
19672;BME280;9983;51.114;13.788;2023-02-20T16:25:35;99268.91;;;12.75;83.81
19672;BME280;9983;51.114;13.788;2023-02-20T16:30:37;99258.47;;;12.86;83.16
19672;BME280;9983;51.114;13.788;2023-02-20T16:35:39;99276.91;;;12.68;84.67
19672;BME280;9983;51.114;13.788;2023-02-20T16:40:39;99269.63;;;12.62;86.13
19672;BME280;9983;51.114;13.788;2023-02-20T16:45:40;99282.25;;;12.89;85.95
19672;BME280;9983;51.114;13.788;2023-02-20T16:50:43;99275.13;;;12.75;86.73
19672;BME280;9983;51.114;13.788;2023-02-20T16:55:46;99293.53;;;13.00;85.75
19672;BME280;9983;51.114;13.788;2023-02-20T17:00:48;99281.28;;;12.69;87.68
19672;BME280;9983;51.114;13.788;2023-02-20T17:05:50;99280.13;;;12.78;86.66
19672;BME280;9983;51.114;13.788;2023-02-20T17:10:57;99276.84;;;13.11;85.72
19672;BME280;9983;51.114;13.788;2023-02-20T17:15:57;99288.81;;;12.80;87.04
19672;BME280;9983;51.114;13.788;2023-02-20T17:20:57;99286.00;;;12.88;87.13
19672;BME280;9983;51.114;13.788;2023-02-20T17:25:57;99298.41;;;12.89;87.92
19672;BME280;9983;51.114;13.788;2023-02-20T17:30:58;99294.78;;;12.97;87.03
19672;BME280;9983;51.114;13.788;2023-02-20T17:35:58;99303.16;;;12.87;88.20
19672;BME280;9983;51.114;13.788;2023-02-20T17:40:58;99305.22;;;12.85;87.80
19672;BME280;9983;51.114;13.788;2023-02-20T17:45:59;99310.47;;;12.93;88.36
19672;BME280;9983;51.114;13.788;2023-02-20T17:51:00;99355.53;;;12.49;93.09
19672;BME280;9983;51.114;13.788;2023-02-20T17:56:00;99355.38;;;12.36;95.89
19672;BME280;9983;51.114;13.788;2023-02-20T18:01:00;99343.50;;;12.45;95.60
19672;BME280;9983;51.114;13.788;2023-02-20T18:06:01;99350.16;;;12.49;95.51
19672;BME280;9983;51.114;13.788;2023-02-20T18:11:01;99352.66;;;12.50;95.98
19672;BME280;9983;51.114;13.788;2023-02-20T18:16:01;99357.00;;;11.71;100.00
19672;BME280;9983;51.114;13.788;2023-02-20T18:21:02;99351.00;;;11.84;100.00
19672;BME280;9983;51.114;13.788;2023-02-20T18:26:02;99365.03;;;11.57;100.00
19672;BME280;9983;51.114;13.788;2023-02-20T18:31:02;99361.16;;;11.45;100.00
19672;BME280;9983;51.114;13.788;2023-02-20T18:36:04;99354.63;;;11.24;100.00
19672;BME280;9983;51.114;13.788;2023-02-20T18:41:04;99362.28;;;10.90;100.00
19672;BME280;9983;51.114;13.788;2023-02-20T18:46:06;99369.19;;;11.07;100.00
19672;BME280;9983;51.114;13.788;2023-02-20T18:51:07;99359.56;;;11.50;100.00
19672;BME280;9983;51.114;13.788;2023-02-20T18:56:09;99350.94;;;11.25;100.00
19672;BME280;9983;51.114;13.788;2023-02-20T19:01:13;99363.63;;;10.94;100.00
19672;BME280;9983;51.114;13.788;2023-02-20T19:06:29;99340.63;;;11.14;100.00
19672;BME280;9983;51.114;13.788;2023-02-20T19:11:33;99332.22;;;11.17;100.00
19672;BME280;9983;51.114;13.788;2023-02-20T19:16:33;99320.97;;;10.99;100.00
19672;BME280;9983;51.114;13.788;2023-02-20T19:21:33;99325.41;;;11.29;100.00
19672;BME280;9983;51.114;13.788;2023-02-20T19:26:33;99333.22;;;11.16;100.00
19672;BME280;9983;51.114;13.788;2023-02-20T19:31:34;99329.94;;;11.44;100.00
19672;BME280;9983;51.114;13.788;2023-02-20T19:36:38;99308.72;;;11.19;100.00
19672;BME280;9983;51.114;13.788;2023-02-20T19:41:39;99307.41;;;11.15;100.00
19672;BME280;9983;51.114;13.788;2023-02-20T19:46:39;99300.91;;;10.95;100.00
19672;BME280;9983;51.114;13.788;2023-02-20T19:51:45;99303.72;;;11.16;100.00
19672;BME280;9983;51.114;13.788;2023-02-20T19:56:54;99308.50;;;11.06;100.00
19672;BME280;9983;51.114;13.788;2023-02-20T20:01:57;99314.94;;;11.34;100.00
19672;BME280;9983;51.114;13.788;2023-02-20T20:06:59;99321.41;;;11.40;100.00
19672;BME280;9983;51.114;13.788;2023-02-20T20:12:00;99328.47;;;11.56;100.00
19672;BME280;9983;51.114;13.788;2023-02-20T20:17:00;99322.16;;;11.34;100.00
19672;BME280;9983;51.114;13.788;2023-02-20T20:22:02;99326.84;;;11.17;100.00
19672;BME280;9983;51.114;13.788;2023-02-20T20:27:02;99328.19;;;11.21;100.00
19672;BME280;9983;51.114;13.788;2023-02-20T20:32:03;99334.25;;;11.15;100.00
19672;BME280;9983;51.114;13.788;2023-02-20T20:37:03;99317.34;;;10.92;100.00
19672;BME280;9983;51.114;13.788;2023-02-20T20:42:04;99332.03;;;11.04;100.00
19672;BME280;9983;51.114;13.788;2023-02-20T20:47:04;99313.41;;;10.80;100.00
19672;BME280;9983;51.114;13.788;2023-02-20T20:52:05;99310.47;;;10.75;100.00
19672;BME280;9983;51.114;13.788;2023-02-20T20:57:06;99300.59;;;10.52;100.00
19672;BME280;9983;51.114;13.788;2023-02-20T21:02:06;99294.72;;;10.72;100.00
19672;BME280;9983;51.114;13.788;2023-02-20T21:07:07;99290.88;;;10.89;100.00
19672;BME280;9983;51.114;13.788;2023-02-20T21:12:09;99293.91;;;10.48;100.00
19672;BME280;9983;51.114;13.788;2023-02-20T21:17:11;99293.91;;;10.48;100.00
19672;BME280;9983;51.114;13.788;2023-02-20T21:22:12;99275.31;;;10.70;100.00
19672;BME280;9983;51.114;13.788;2023-02-20T21:27:14;99280.53;;;10.63;100.00
19672;BME280;9983;51.114;13.788;2023-02-20T21:32:14;99293.50;;;10.59;100.00
19672;BME280;9983;51.114;13.788;2023-02-20T21:37:14;99285.16;;;10.54;100.00
19672;BME280;9983;51.114;13.788;2023-02-20T21:42:15;99299.88;;;10.58;100.00
19672;BME280;9983;51.114;13.788;2023-02-20T21:47:34;99287.00;;;10.77;100.00
19672;BME280;9983;51.114;13.788;2023-02-20T21:52:35;99295.16;;;10.98;100.00
19672;BME280;9983;51.114;13.788;2023-02-20T21:57:36;99304.28;;;10.51;100.00
19672;BME280;9983;51.114;13.788;2023-02-20T22:02:36;99305.56;;;10.55;100.00
19672;BME280;9983;51.114;13.788;2023-02-20T22:07:37;99299.72;;;10.75;100.00
19672;BME280;9983;51.114;13.788;2023-02-20T22:12:55;99284.00;;;10.72;100.00
19672;BME280;9983;51.114;13.788;2023-02-20T22:18:14;99297.34;;;10.80;100.00
19672;BME280;9983;51.114;13.788;2023-02-20T22:23:33;99281.03;;;10.67;100.00
19672;BME280;9983;51.114;13.788;2023-02-20T22:28:51;99277.47;;;10.51;100.00
19672;BME280;9983;51.114;13.788;2023-02-20T22:34:10;99273.19;;;10.42;100.00
19672;BME280;9983;51.114;13.788;2023-02-20T22:39:29;99266.03;;;10.57;100.00
19672;BME280;9983;51.114;13.788;2023-02-20T22:44:48;99271.31;;;10.65;100.00
19672;BME280;9983;51.114;13.788;2023-02-20T22:50:07;99278.53;;;10.88;100.00
19672;BME280;9983;51.114;13.788;2023-02-20T22:55:26;99256.22;;;10.27;100.00
19672;BME280;9983;51.114;13.788;2023-02-20T23:00:45;99255.97;;;10.59;100.00
19672;BME280;9983;51.114;13.788;2023-02-20T23:06:04;99256.16;;;10.35;100.00
19672;BME280;9983;51.114;13.788;2023-02-20T23:11:23;99261.06;;;10.46;100.00
19672;BME280;9983;51.114;13.788;2023-02-20T23:16:42;99260.41;;;10.21;100.00
19672;BME280;9983;51.114;13.788;2023-02-20T23:22:00;99251.97;;;10.33;100.00
19672;BME280;9983;51.114;13.788;2023-02-20T23:27:19;99271.06;;;10.38;100.00
19672;BME280;9983;51.114;13.788;2023-02-20T23:32:39;99274.69;;;10.82;100.00
19672;BME280;9983;51.114;13.788;2023-02-20T23:37:58;99275.19;;;10.86;100.00
19672;BME280;9983;51.114;13.788;2023-02-20T23:43:16;99282.22;;;10.41;100.00
19672;BME280;9983;51.114;13.788;2023-02-20T23:48:35;99268.16;;;10.85;100.00
19672;BME280;9983;51.114;13.788;2023-02-20T23:53:54;99283.66;;;10.75;100.00
19672;BME280;9983;51.114;13.788;2023-02-20T23:59:13;99279.03;;;10.46;100.00
